createdAt,value
2019-05-19T00:14:29.354Z,49.80
2019-05-19T00:27:36.514Z,49.90
2019-05-19T00:40:43.666Z,50.00
2019-05-19T00:53:50.837Z,50.00
2019-05-19T01:06:57.993Z,50.00
2019-05-19T01:20:05.242Z,50.00
2019-05-19T01:33:29.214Z,50.10
2019-05-19T01:46:51.975Z,50.10
2019-05-19T02:00:14.769Z,50.10
2019-05-19T02:13:37.568Z,50.10
2019-05-19T02:27:00.415Z,50.20
2019-05-19T02:40:23.206Z,50.30
2019-05-19T02:53:46.069Z,50.20
2019-05-19T03:07:08.901Z,50.30
2019-05-19T03:20:31.683Z,50.30
2019-05-19T03:46:56.080Z,50.40
2019-05-19T04:00:03.281Z,50.40
2019-05-19T04:13:10.504Z,50.40
2019-05-19T04:26:17.665Z,50.40
2019-05-19T04:39:24.829Z,50.40
2019-05-19T04:52:31.977Z,50.50
2019-05-19T05:05:55.934Z,50.50
2019-05-19T05:19:18.693Z,50.50
2019-05-19T05:32:41.652Z,50.60
2019-05-19T05:46:04.335Z,50.50
2019-05-19T05:59:27.157Z,50.50
2019-05-19T06:12:50.062Z,50.60
2019-05-19T06:26:12.896Z,50.60
2019-05-19T06:39:35.630Z,50.50
2019-05-19T06:53:11.221Z,50.40
2019-05-19T07:06:21.235Z,50.40
2019-05-19T07:19:44.067Z,50.50
2019-05-19T07:46:08.929Z,50.80
2019-05-19T08:12:21.487Z,50.70
2019-05-19T08:25:28.663Z,50.70
2019-05-19T08:38:35.871Z,50.50
2019-05-19T08:51:43.050Z,50.80
2019-05-19T09:04:50.957Z,50.70
2019-05-19T09:18:14.714Z,50.80
2019-05-19T09:31:37.535Z,51.70
2019-05-19T09:45:00.394Z,52.00
2019-05-19T09:58:23.161Z,52.30
2019-05-19T10:11:46.165Z,52.50
2019-05-19T10:51:16.857Z,52.90
2019-05-19T11:04:24.013Z,52.30
2019-05-19T11:17:31.170Z,52.20
2019-05-19T11:30:38.319Z,52.40
2019-05-19T11:43:45.560Z,52.00
2019-05-19T11:56:52.728Z,51.90
2019-05-19T12:10:16.636Z,52.00
2019-05-19T12:23:39.443Z,51.90
2019-05-19T12:37:02.231Z,52.00
2019-05-19T12:50:25.144Z,51.90
2019-05-19T13:03:48.217Z,51.70
2019-05-19T13:17:10.751Z,51.20
2019-05-19T13:30:33.539Z,51.20
2019-05-19T13:43:59.185Z,51.10
2019-05-19T13:57:19.159Z,51.00
2019-05-19T14:10:41.975Z,51.50
2019-05-19T14:24:04.915Z,50.90
2019-05-19T14:37:27.713Z,50.80
2019-05-19T14:50:50.458Z,50.80
2019-05-19T15:04:13.253Z,53.70
2019-05-19T15:17:36.300Z,53.20
2019-05-19T15:30:58.898Z,56.00
2019-05-19T15:44:21.715Z,56.10
2019-05-19T15:57:44.499Z,54.80
2019-05-19T16:11:08.086Z,54.30
2019-05-19T16:24:30.186Z,52.60
2019-05-19T16:37:52.949Z,54.40
2019-05-19T16:51:15.793Z,52.90
2019-05-19T17:04:38.596Z,52.60
2019-05-19T17:18:02.081Z,51.40
2019-05-19T17:31:24.209Z,53.30
2019-05-19T17:44:47.042Z,51.80
2019-05-19T17:58:09.847Z,51.60
2019-05-19T18:11:32.665Z,51.90
2019-05-19T18:24:55.583Z,52.80
2019-05-19T18:38:18.497Z,52.20
2019-05-19T18:51:41.140Z,52.40
2019-05-19T19:05:03.935Z,52.60
2019-05-19T19:18:26.755Z,52.80
2019-05-19T19:31:49.566Z,52.90
2019-05-19T19:58:14.324Z,53.10
2019-05-19T20:11:21.522Z,53.00
2019-05-19T20:24:28.763Z,52.90
2019-05-19T20:37:35.984Z,53.00
2019-05-19T20:50:43.173Z,53.00
2019-05-19T21:04:07.437Z,53.10
2019-05-19T21:17:30.619Z,52.90
2019-05-19T21:43:54.615Z,51.80
2019-05-19T21:57:01.811Z,51.90
2019-05-19T22:10:09.011Z,52.20
2019-05-19T22:23:16.350Z,52.40
2019-05-19T22:36:23.558Z,52.50
2019-05-19T22:49:30.747Z,52.50
2019-05-19T23:02:54.909Z,52.60
2019-05-19T23:16:17.183Z,52.70
2019-05-19T23:43:15.493Z,53.60
2019-05-19T23:56:22.951Z,53.00
